Time;durP1;ratioP1;P1;durP2;ratioP2;P2;SDS_P1;SDS_P2;PMS_P1;PMS_P2;Temp;Humidity;BMP_temperature;BMP_pressure;BME280_temperature;BME280_humidity;BME280_pressure;Samples;Min_cycle;Max_cycle;Signal;HPM_P1;HPM_P2
2022/05/20 00:00:54;;;;;;;15.93;5.32;;;;;;;;;;5036274;28;20144;-73
2022/05/20 00:03:20;;;;;;;15.75;5.47;;;;;;;;;;5049512;28;20071;-75
2022/05/20 00:05:47;;;;;;;17.17;5.85;;;;;;;;;;5040403;28;20049;-74
2022/05/20 00:08:13;;;;;;;13.60;6.00;;;;;;;;;;5040527;28;20069;-73
2022/05/20 00:10:39;;;;;;;19.52;5.20;;;;;;;;;;5036759;28;20087;-75
2022/05/20 00:13:06;;;;;;;15.15;5.63;;;;;;;;;;5046740;28;20037;-75
2022/05/20 00:15:32;;;;;;;15.18;5.60;;;;;;;;;;5042342;28;20064;-75
2022/05/20 00:17:58;;;;;;;15.57;5.50;;;;;;;;;;5041379;28;20056;-74
2022/05/20 00:20:26;;;;;;;12.57;5.40;;;;;;;;;;5046592;28;20075;-74
2022/05/20 00:22:52;;;;;;;15.18;5.70;;;;;;;;;;5035249;28;20045;-73
2022/05/20 00:28:05;;;;;;;11.70;4.55;;;;;;;;;;5046210;28;20124;-75
2022/05/20 00:30:32;;;;;;;11.60;4.72;;;;;;;;;;5035389;28;20059;-76
2022/05/20 00:32:58;;;;;;;13.15;5.32;;;;;;;;;;5047143;28;20050;-75
2022/05/20 00:35:24;;;;;;;16.15;4.93;;;;;;;;;;5045552;28;20041;-74
2022/05/20 00:37:50;;;;;;;13.90;5.07;;;;;;;;;;5038413;28;20090;-77
2022/05/20 00:40:19;;;;;;;12.50;4.75;;;;;;;;;;5046012;28;20497;-76
2022/05/20 00:42:45;;;;;;;13.13;5.18;;;;;;;;;;5041886;28;20504;-79
2022/05/20 00:45:12;;;;;;;15.07;5.38;;;;;;;;;;5046308;28;20043;-75
2022/05/20 00:47:38;;;;;;;11.10;4.95;;;;;;;;;;5037169;28;20064;-75
2022/05/20 00:50:09;;;;;;;16.13;5.18;;;;;;;;;;5046529;28;20159;-75
2022/05/20 00:52:37;;;;;;;15.05;4.70;;;;;;;;;;5039812;28;20317;-74
2022/05/20 00:55:10;;;;;;;9.90;4.93;;;;;;;;;;5035598;28;20052;-71
2022/05/20 00:58:00;;;;;;;10.57;5.43;;;;;;;;;;5039366;28;20587;-75
2022/05/20 01:00:28;;;;;;;11.35;5.28;;;;;;;;;;5042787;28;20676;-75
2022/05/20 01:03:01;;;;;;;13.52;5.93;;;;;;;;;;5039486;28;20385;-74
2022/05/20 01:05:36;;;;;;;14.30;5.90;;;;;;;;;;5046024;28;20056;-75
2022/05/20 01:08:04;;;;;;;13.27;5.53;;;;;;;;;;5042874;28;20182;-75
2022/05/20 01:10:30;;;;;;;16.80;5.93;;;;;;;;;;5033850;28;20048;-75
2022/05/20 01:12:57;;;;;;;17.92;5.97;;;;;;;;;;5027732;28;20156;-75
2022/05/20 01:15:24;;;;;;;13.45;5.90;;;;;;;;;;5043031;28;20132;-74
2022/05/20 01:17:53;;;;;;;13.80;6.07;;;;;;;;;;5037869;28;20037;-75
2022/05/20 01:20:26;;;;;;;14.10;5.93;;;;;;;;;;5042165;28;20069;-75
2022/05/20 01:23:00;;;;;;;12.45;5.82;;;;;;;;;;5038320;28;20041;-75
2022/05/20 01:25:28;;;;;;;13.57;5.43;;;;;;;;;;5038357;28;20095;-75
2022/05/20 01:27:54;;;;;;;10.07;5.85;;;;;;;;;;5040927;28;20072;-74
2022/05/20 01:30:23;;;;;;;13.52;6.20;;;;;;;;;;5042244;28;20523;-74
2022/05/20 01:32:49;;;;;;;13.32;5.53;;;;;;;;;;5049431;28;20110;-74
2022/05/20 01:35:40;;;;;;;12.60;5.20;;;;;;;;;;5046972;28;20052;-75
2022/05/20 01:38:07;;;;;;;12.98;5.55;;;;;;;;;;5035151;28;20129;-74
2022/05/20 01:41:00;;;;;;;17.27;5.72;;;;;;;;;;5043510;28;20060;-75
2022/05/20 01:43:40;;;;;;;11.05;6.30;;;;;;;;;;5049485;28;20053;-72
2022/05/20 01:46:12;;;;;;;18.67;6.00;;;;;;;;;;5045467;28;20063;-75
2022/05/20 01:48:47;;;;;;;14.40;6.55;;;;;;;;;;5038520;28;20041;-74
2022/05/20 01:51:16;;;;;;;16.40;6.85;;;;;;;;;;5040018;28;20045;-75
2022/05/20 01:53:54;;;;;;;17.17;6.55;;;;;;;;;;5040963;28;20092;-75
2022/05/20 01:56:30;;;;;;;18.73;7.40;;;;;;;;;;5040673;28;20046;-77
2022/05/20 01:59:12;;;;;;;15.30;7.57;;;;;;;;;;5038218;28;20055;-75
2022/05/20 02:02:17;;;;;;;22.23;9.35;;;;;;;;;;5047564;28;20131;-74
2022/05/20 02:04:50;;;;;;;16.17;8.15;;;;;;;;;;5061994;28;20131;-74
2022/05/20 02:07:22;;;;;;;18.17;8.05;;;;;;;;;;5054047;28;20056;-73
2022/05/20 02:10:16;;;;;;;21.33;7.63;;;;;;;;;;5065438;28;20044;-75
2022/05/20 02:12:48;;;;;;;21.52;7.28;;;;;;;;;;5066335;28;20047;-76
2022/05/20 02:15:21;;;;;;;15.55;6.70;;;;;;;;;;5065362;28;20044;-76
2022/05/20 02:17:53;;;;;;;11.90;6.70;;;;;;;;;;5064057;28;20049;-75
2022/05/20 02:20:29;;;;;;;16.88;6.47;;;;;;;;;;5067377;28;20051;-77
2022/05/20 02:23:02;;;;;;;10.95;6.25;;;;;;;;;;5057153;28;20083;-76
2022/05/20 02:25:32;;;;;;;15.87;5.73;;;;;;;;;;5061134;28;20139;-76
2022/05/20 02:28:05;;;;;;;12.45;6.00;;;;;;;;;;5055030;28;20301;-73
2022/05/20 02:30:33;;;;;;;18.17;6.17;;;;;;;;;;5053103;28;20431;-73
2022/05/20 02:33:08;;;;;;;22.63;6.38;;;;;;;;;;5059250;28;20060;-73
2022/05/20 02:35:34;;;;;;;13.57;5.65;;;;;;;;;;5068276;28;20069;-74
2022/05/20 02:38:10;;;;;;;16.13;6.43;;;;;;;;;;5063634;28;20095;-75
2022/05/20 02:40:38;;;;;;;10.80;5.32;;;;;;;;;;5057788;28;20056;-75
2022/05/20 02:43:04;;;;;;;13.45;5.53;;;;;;;;;;5044956;28;20053;-75
2022/05/20 02:45:30;;;;;;;15.57;5.35;;;;;;;;;;5049361;28;20033;-75
2022/05/20 02:47:56;;;;;;;12.73;5.32;;;;;;;;;;5042520;28;20048;-75
2022/05/20 02:50:22;;;;;;;12.27;5.47;;;;;;;;;;5049833;28;20510;-76
2022/05/20 02:52:48;;;;;;;17.05;6.05;;;;;;;;;;5041164;28;20044;-76
2022/05/20 02:55:13;;;;;;;13.70;5.97;;;;;;;;;;5049303;28;20049;-76
2022/05/20 02:57:40;;;;;;;12.55;5.85;;;;;;;;;;5045000;28;20049;-75
2022/05/20 03:04:09;;;;;;;13.00;7.03;;;;;;;;;;5038895;28;20060;-76
2022/05/20 03:05:56;;;;;;;14.43;5.70;;;;;;;;;;5042888;28;20527;-74
2022/05/20 03:08:22;;;;;;;16.23;6.28;;;;;;;;;;5047413;28;20504;-75
2022/05/20 03:10:49;;;;;;;12.98;6.82;;;;;;;;;;5048128;28;20059;-75
2022/05/20 03:13:15;;;;;;;15.35;6.25;;;;;;;;;;5046566;28;20124;-76
2022/05/20 03:15:41;;;;;;;13.93;5.90;;;;;;;;;;5037182;28;20052;-77
2022/05/20 03:18:09;;;;;;;11.98;5.80;;;;;;;;;;5047587;28;20049;-76
2022/05/20 03:20:35;;;;;;;10.18;5.47;;;;;;;;;;5035151;28;20561;-75
2022/05/20 03:23:01;;;;;;;16.60;5.97;;;;;;;;;;5031679;28;20413;-76
2022/05/20 03:25:27;;;;;;;14.15;6.07;;;;;;;;;;5038783;28;20044;-75
2022/05/20 03:27:53;;;;;;;13.45;6.18;;;;;;;;;;5037934;28;20042;-74
2022/05/20 03:30:19;;;;;;;14.52;5.65;;;;;;;;;;5040979;28;20045;-73
2022/05/20 03:32:45;;;;;;;13.52;5.70;;;;;;;;;;5035278;28;20045;-74
2022/05/20 03:35:12;;;;;;;13.35;5.53;;;;;;;;;;5040746;28;20045;-74
2022/05/20 03:37:38;;;;;;;11.50;5.32;;;;;;;;;;5040104;28;20045;-76
2022/05/20 03:40:05;;;;;;;10.77;5.22;;;;;;;;;;5046155;28;20240;-75
2022/05/20 03:42:32;;;;;;;14.52;5.82;;;;;;;;;;5040823;28;20041;-72
2022/05/20 03:44:58;;;;;;;10.77;5.40;;;;;;;;;;5043960;28;21021;-76
2022/05/20 03:47:24;;;;;;;12.57;6.07;;;;;;;;;;5042029;28;20037;-73
2022/05/20 03:49:49;;;;;;;11.77;5.68;;;;;;;;;;5048912;28;20492;-74
2022/05/20 03:52:16;;;;;;;13.95;5.40;;;;;;;;;;5045181;28;20049;-75
2022/05/20 03:54:42;;;;;;;14.20;5.97;;;;;;;;;;5031262;28;20496;-76
2022/05/20 03:57:09;;;;;;;11.85;5.40;;;;;;;;;;5048853;28;20098;-74
2022/05/20 03:59:39;;;;;;;14.43;5.60;;;;;;;;;;5037549;28;20128;-74
2022/05/20 04:02:08;;;;;;;10.52;5.25;;;;;;;;;;5043015;28;20447;-74
2022/05/20 04:04:46;;;;;;;12.57;5.80;;;;;;;;;;5032427;28;20041;-76
2022/05/20 04:07:19;;;;;;;20.75;5.47;;;;;;;;;;5039633;28;20135;-76
2022/05/20 04:09:45;;;;;;;13.07;6.20;;;;;;;;;;5040352;28;20063;-73
2022/05/20 04:12:40;;;;;;;11.57;5.38;;;;;;;;;;5044644;28;20037;-74
2022/05/20 04:15:10;;;;;;;10.30;5.38;;;;;;;;;;5041870;28;20056;-77
2022/05/20 04:17:36;;;;;;;10.55;5.45;;;;;;;;;;5032851;28;20073;-74
2022/05/20 04:20:04;;;;;;;14.55;5.80;;;;;;;;;;5047077;28;20083;-74
2022/05/20 04:22:32;;;;;;;17.33;5.72;;;;;;;;;;5042396;28;20757;-74
2022/05/20 04:24:58;;;;;;;10.40;5.35;;;;;;;;;;5040775;28;20081;-76
2022/05/20 04:27:25;;;;;;;10.50;5.18;;;;;;;;;;5034838;28;20235;-75
2022/05/20 04:29:51;;;;;;;12.90;5.88;;;;;;;;;;5034421;28;20539;-72
2022/05/20 04:32:17;;;;;;;12.02;6.30;;;;;;;;;;5032631;28;20060;-72
2022/05/20 04:34:43;;;;;;;14.10;5.65;;;;;;;;;;5032884;28;20033;-72
2022/05/20 04:37:08;;;;;;;15.93;5.95;;;;;;;;;;5038501;28;20066;-72
2022/05/20 04:39:34;;;;;;;10.68;5.25;;;;;;;;;;5046991;28;20041;-75
2022/05/20 04:47:31;;;;;;;11.90;5.15;;;;;;;;;;5039648;28;20144;-74
2022/05/20 04:49:57;;;;;;;14.27;5.82;;;;;;;;;;5038232;28;20056;-74
2022/05/20 04:52:23;;;;;;;18.00;5.20;;;;;;;;;;5035946;28;20497;-76
2022/05/20 04:54:50;;;;;;;23.08;6.05;;;;;;;;;;5049042;28;20045;-74
2022/05/20 04:57:25;;;;;;;15.18;5.70;;;;;;;;;;5046670;28;20320;-74
2022/05/20 04:59:52;;;;;;;18.77;6.28;;;;;;;;;;5040573;28;20044;-75
2022/05/20 05:02:18;;;;;;;15.38;6.70;;;;;;;;;;5036334;28;20144;-72
2022/05/20 05:04:45;;;;;;;16.33;6.05;;;;;;;;;;5042417;28;20052;-73
2022/05/20 05:07:11;;;;;;;14.48;5.97;;;;;;;;;;5047667;28;20041;-73
2022/05/20 05:09:42;;;;;;;13.88;6.22;;;;;;;;;;5046201;28;20047;-74
2022/05/20 05:12:09;;;;;;;18.33;5.88;;;;;;;;;;5048396;28;20048;-73
2022/05/20 05:14:43;;;;;;;11.40;5.57;;;;;;;;;;5042360;28;20069;-74
2022/05/20 05:17:11;;;;;;;16.80;5.82;;;;;;;;;;5050020;28;20067;-75
2022/05/20 05:19:38;;;;;;;15.35;6.07;;;;;;;;;;5052147;28;20132;-79
2022/05/20 05:22:06;;;;;;;16.42;5.95;;;;;;;;;;5045383;28;20065;-73
2022/05/20 05:24:33;;;;;;;21.80;7.13;;;;;;;;;;5040008;28;20045;-73
2022/05/20 05:26:59;;;;;;;14.52;5.97;;;;;;;;;;5037134;28;20863;-72
2022/05/20 05:29:25;;;;;;;16.63;5.90;;;;;;;;;;5036782;28;20246;-71
2022/05/20 05:31:52;;;;;;;21.52;5.75;;;;;;;;;;5042714;28;20583;-68
2022/05/20 05:34:17;;;;;;;19.27;6.65;;;;;;;;;;5041109;28;20048;-70
2022/05/20 05:36:44;;;;;;;13.68;5.57;;;;;;;;;;5041664;28;20077;-68
2022/05/20 05:39:10;;;;;;;15.10;5.38;;;;;;;;;;5042505;28;20428;-65
2022/05/20 05:41:35;;;;;;;19.27;6.32;;;;;;;;;;5040642;28;20055;-71
2022/05/20 05:44:03;;;;;;;14.48;6.00;;;;;;;;;;5043101;28;20127;-70
2022/05/20 05:46:30;;;;;;;19.90;6.15;;;;;;;;;;5041697;28;20048;-69
2022/05/20 05:48:57;;;;;;;12.95;6.03;;;;;;;;;;5044535;28;20072;-69
2022/05/20 05:51:24;;;;;;;16.85;5.95;;;;;;;;;;5039985;28;20487;-69
2022/05/20 05:53:49;;;;;;;17.58;6.22;;;;;;;;;;5039424;28;20168;-70
2022/05/20 05:56:15;;;;;;;19.35;6.15;;;;;;;;;;5038808;28;20933;-67
2022/05/20 05:58:41;;;;;;;18.23;6.03;;;;;;;;;;5040526;28;20496;-73
2022/05/20 06:01:07;;;;;;;14.20;6.63;;;;;;;;;;5039853;28;20053;-69
2022/05/20 06:03:34;;;;;;;18.70;6.20;;;;;;;;;;5040247;28;20060;-69
2022/05/20 06:06:00;;;;;;;21.48;7.50;;;;;;;;;;5044372;28;20056;-71
2022/05/20 06:08:26;;;;;;;18.45;6.05;;;;;;;;;;5044217;28;20037;-70
2022/05/20 06:10:52;;;;;;;19.85;6.78;;;;;;;;;;5037915;28;20049;-73
2022/05/20 06:13:26;;;;;;;29.05;7.47;;;;;;;;;;5045583;28;20068;-75
2022/05/20 06:15:55;;;;;;;18.70;7.50;;;;;;;;;;5040012;28;20037;-74
2022/05/20 06:18:21;;;;;;;19.67;6.07;;;;;;;;;;5038445;28;20063;-76
2022/05/20 06:20:48;;;;;;;26.50;6.45;;;;;;;;;;5048046;28;20045;-74
2022/05/20 06:23:15;;;;;;;27.83;6.28;;;;;;;;;;5051954;28;20128;-77
2022/05/20 06:25:41;;;;;;;15.90;6.65;;;;;;;;;;5044454;28;20107;-73
2022/05/20 06:28:15;;;;;;;17.00;5.97;;;;;;;;;;5043172;28;20064;-72
2022/05/20 06:30:42;;;;;;;21.27;6.40;;;;;;;;;;5046206;28;20166;-76
2022/05/20 06:33:08;;;;;;;33.22;7.03;;;;;;;;;;5040896;28;22497;-72
2022/05/20 06:41:04;;;;;;;23.02;6.90;;;;;;;;;;5036802;28;20135;-69
2022/05/20 06:43:30;;;;;;;20.88;7.88;;;;;;;;;;5045493;28;20037;-69
2022/05/20 06:46:00;;;;;;;18.95;6.75;;;;;;;;;;5040510;28;20052;-70
2022/05/20 06:48:39;;;;;;;19.02;7.07;;;;;;;;;;5048720;28;20134;-68
2022/05/20 06:51:07;;;;;;;21.70;7.35;;;;;;;;;;5040857;28;20060;-69
2022/05/20 06:53:33;;;;;;;22.88;6.88;;;;;;;;;;5042816;28;20064;-69
2022/05/20 06:55:59;;;;;;;16.20;6.47;;;;;;;;;;5034652;28;20086;-67
2022/05/20 06:58:25;;;;;;;18.73;7.35;;;;;;;;;;5043084;28;21736;-66
2022/05/20 07:00:51;;;;;;;24.77;7.45;;;;;;;;;;5042186;28;20036;-73
2022/05/20 07:03:20;;;;;;;17.63;6.20;;;;;;;;;;5042885;28;20049;-71
2022/05/20 07:05:46;;;;;;;16.40;6.07;;;;;;;;;;5047090;28;20049;-71
2022/05/20 07:08:13;;;;;;;14.30;6.10;;;;;;;;;;5038809;28;20814;-71
2022/05/20 07:10:39;;;;;;;15.02;5.57;;;;;;;;;;5047173;28;20411;-71
2022/05/20 07:13:06;;;;;;;15.38;5.55;;;;;;;;;;5045355;28;20048;-70
2022/05/20 07:15:32;;;;;;;24.55;5.95;;;;;;;;;;5046326;28;20052;-70
2022/05/20 07:17:58;;;;;;;21.15;5.88;;;;;;;;;;5045514;28;20512;-70
2022/05/20 07:20:24;;;;;;;12.68;4.60;;;;;;;;;;5046487;28;20063;-70
2022/05/20 07:22:50;;;;;;;18.05;5.45;;;;;;;;;;5048486;28;20107;-70
2022/05/20 07:25:18;;;;;;;14.95;5.47;;;;;;;;;;5048000;28;20491;-71
2022/05/20 07:27:45;;;;;;;17.55;4.55;;;;;;;;;;5046230;28;20080;-72
2022/05/20 07:30:13;;;;;;;15.27;5.22;;;;;;;;;;5046213;28;20056;-71
2022/05/20 07:32:39;;;;;;;12.73;4.70;;;;;;;;;;5048073;28;20047;-70
2022/05/20 07:35:05;;;;;;;15.43;4.90;;;;;;;;;;5046374;28;20036;-72
2022/05/20 07:37:32;;;;;;;22.38;5.70;;;;;;;;;;5048228;28;20481;-70
2022/05/20 07:39:58;;;;;;;15.07;5.35;;;;;;;;;;5040849;28;20510;-73
2022/05/20 07:42:24;;;;;;;14.20;4.72;;;;;;;;;;5047786;28;20136;-72
2022/05/20 07:44:50;;;;;;;13.00;4.20;;;;;;;;;;5040568;28;20091;-71
2022/05/20 07:47:17;;;;;;;12.88;4.20;;;;;;;;;;5047695;28;20449;-73
2022/05/20 07:49:43;;;;;;;14.70;4.63;;;;;;;;;;5045946;28;20185;-75
2022/05/20 07:52:11;;;;;;;13.38;4.25;;;;;;;;;;5041296;28;20128;-71
2022/05/20 07:54:41;;;;;;;15.77;4.13;;;;;;;;;;5041806;28;20112;-73
2022/05/20 07:57:13;;;;;;;11.48;4.03;;;;;;;;;;5041988;28;20119;-73
2022/05/20 07:59:51;;;;;;;9.73;3.67;;;;;;;;;;5046400;28;20045;-70
2022/05/20 08:02:21;;;;;;;9.70;3.63;;;;;;;;;;5044559;28;20056;-72
2022/05/20 08:05:01;;;;;;;15.02;4.18;;;;;;;;;;5036319;28;20277;-71
2022/05/20 08:07:36;;;;;;;11.27;3.45;;;;;;;;;;5039803;28;20053;-70
2022/05/20 08:10:09;;;;;;;8.60;3.50;;;;;;;;;;5038968;28;20060;-72
2022/05/20 08:12:34;;;;;;;14.30;3.75;;;;;;;;;;5028146;28;20054;-70
2022/05/20 08:15:00;;;;;;;11.55;3.42;;;;;;;;;;5047294;28;20124;-72
2022/05/20 08:17:27;;;;;;;10.60;3.20;;;;;;;;;;5044789;28;20269;-70
2022/05/20 08:19:54;;;;;;;11.18;3.70;;;;;;;;;;5037110;28;20078;-72
2022/05/20 08:22:22;;;;;;;12.57;3.50;;;;;;;;;;5047685;28;20124;-71
2022/05/20 08:24:52;;;;;;;9.70;3.17;;;;;;;;;;5048256;28;20060;-72
2022/05/20 08:27:20;;;;;;;17.10;3.63;;;;;;;;;;5047699;28;20045;-72
2022/05/20 08:29:46;;;;;;;10.90;3.50;;;;;;;;;;5031667;28;20044;-71
2022/05/20 08:32:12;;;;;;;9.57;3.17;;;;;;;;;;5037771;28;20050;-73
2022/05/20 08:34:38;;;;;;;15.10;3.78;;;;;;;;;;5040393;28;20086;-73
2022/05/20 08:37:04;;;;;;;11.55;3.45;;;;;;;;;;5046109;28;20065;-71
2022/05/20 08:39:30;;;;;;;10.73;3.35;;;;;;;;;;5039470;28;21798;-70
2022/05/20 08:41:57;;;;;;;10.20;3.88;;;;;;;;;;5044617;28;20123;-71
2022/05/20 08:44:24;;;;;;;14.65;3.30;;;;;;;;;;5043918;28;20408;-72
2022/05/20 08:46:51;;;;;;;11.50;3.35;;;;;;;;;;5042982;28;20041;-73
2022/05/20 08:49:21;;;;;;;14.10;3.17;;;;;;;;;;5042168;28;20176;-72
2022/05/20 08:51:52;;;;;;;15.75;3.28;;;;;;;;;;5038442;28;20041;-71
2022/05/20 08:54:19;;;;;;;9.23;3.15;;;;;;;;;;5049033;28;20081;-73
2022/05/20 08:56:46;;;;;;;8.68;3.10;;;;;;;;;;5035481;28;20033;-72
2022/05/20 08:59:20;;;;;;;10.10;3.40;;;;;;;;;;5040878;28;20589;-73
2022/05/20 09:01:51;;;;;;;11.00;3.17;;;;;;;;;;5045897;28;20049;-73
2022/05/20 09:04:21;;;;;;;11.63;3.65;;;;;;;;;;5051813;28;20626;-73
2022/05/20 09:06:59;;;;;;;11.45;3.20;;;;;;;;;;5033045;28;20088;-72
2022/05/20 09:09:45;;;;;;;11.35;3.25;;;;;;;;;;5027456;28;20136;-72
2022/05/20 09:12:29;;;;;;;19.27;4.35;;;;;;;;;;5040867;28;20072;-72
2022/05/20 09:17:50;;;;;;;11.68;3.42;;;;;;;;;;5028684;28;20297;-72
2022/05/20 09:20:18;;;;;;;14.88;3.60;;;;;;;;;;5036960;28;20056;-72
2022/05/20 09:23:00;;;;;;;13.57;3.63;;;;;;;;;;5032615;28;20236;-73
2022/05/20 09:25:29;;;;;;;8.57;3.22;;;;;;;;;;5045112;28;20074;-73
2022/05/20 09:28:32;;;;;;;8.07;3.30;;;;;;;;;;5033359;28;20041;-73
2022/05/20 09:31:12;;;;;;;11.65;3.03;;;;;;;;;;5038663;28;20230;-71
2022/05/20 09:33:38;;;;;;;11.90;3.42;;;;;;;;;;5035129;28;20546;-72
2022/05/20 09:36:05;;;;;;;10.55;3.70;;;;;;;;;;5045897;28;20049;-73
2022/05/20 09:38:41;;;;;;;9.65;2.92;;;;;;;;;;5035045;28;20602;-73
2022/05/20 09:41:25;;;;;;;9.57;3.30;;;;;;;;;;5047351;28;20531;-73
2022/05/20 09:43:58;;;;;;;16.50;3.78;;;;;;;;;;5045664;28;20084;-74
2022/05/20 09:46:41;;;;;;;;;;;;;;;;;;5044042;28;20057;-72
2022/05/20 09:49:16;;;;;;;9.68;3.15;;;;;;;;;;5039143;28;19920;-75
2022/05/20 09:51:50;;;;;;;11.13;3.17;;;;;;;;;;5034046;28;20238;-72
2022/05/20 09:54:26;;;;;;;14.45;3.40;;;;;;;;;;5042671;28;20056;-76
2022/05/20 09:57:11;;;;;;;17.98;3.00;;;;;;;;;;5045680;28;20415;-73
2022/05/20 09:59:52;;;;;;;8.70;3.08;;;;;;;;;;5037232;28;20048;-73
2022/05/20 10:02:33;;;;;;;12.80;3.22;;;;;;;;;;5046453;28;20049;-74
2022/05/20 10:05:19;;;;;;;12.52;3.60;;;;;;;;;;5053403;28;20037;-74
2022/05/20 10:08:13;;;;;;;10.95;3.05;;;;;;;;;;5043882;28;20415;-76
2022/05/20 10:10:55;;;;;;;12.30;3.10;;;;;;;;;;5049404;28;20456;-73
2022/05/20 10:13:40;;;;;;;8.75;3.70;;;;;;;;;;5049837;28;20045;-71
2022/05/20 10:16:31;;;;;;;12.70;3.35;;;;;;;;;;5049494;28;20454;-74
2022/05/20 10:19:11;;;;;;;9.88;3.30;;;;;;;;;;5044146;28;20599;-75
2022/05/20 10:21:43;;;;;;;12.15;3.50;;;;;;;;;;5051544;28;20403;-74
2022/05/20 10:24:29;;;;;;;13.38;3.60;;;;;;;;;;5042059;28;20055;-74
2022/05/20 10:27:10;;;;;;;10.40;3.13;;;;;;;;;;5044565;28;20080;-73
2022/05/20 10:32:49;;;;;;;6.07;2.67;;;;;;;;;;5044602;28;20049;-73
2022/05/20 10:35:23;;;;;;;11.07;3.53;;;;;;;;;;5051236;28;20044;-74
2022/05/20 10:38:24;;;;;;;14.00;3.25;;;;;;;;;;5049419;28;20931;-72
2022/05/20 10:41:07;;;;;;;9.80;3.05;;;;;;;;;;5029677;28;20504;-72
2022/05/20 10:50:08;;;;;;;13.30;2.92;;;;;;;;;;5028674;28;20141;-74
2022/05/20 10:52:57;;;;;;;9.30;3.50;;;;;;;;;;5042778;28;20069;-72
2022/05/20 10:55:53;;;;;;;14.32;4.85;;;;;;;;;;5048712;28;20056;-73
2022/05/20 10:58:56;;;;;;;12.70;3.33;;;;;;;;;;5031786;28;20057;-77
2022/05/20 11:01:49;;;;;;;7.47;2.90;;;;;;;;;;5030171;28;20049;-73
2022/05/20 11:04:27;;;;;;;12.57;4.17;;;;;;;;;;5031896;28;20064;-70
2022/05/20 11:07:12;;;;;;;6.50;3.00;;;;;;;;;;5038279;28;20282;-72
2022/05/20 11:09:53;;;;;;;10.25;2.63;;;;;;;;;;5047477;28;20045;-71
2022/05/20 11:12:25;;;;;;;18.38;3.83;;;;;;;;;;5050959;28;20492;-72
2022/05/20 11:15:28;;;;;;;13.63;3.60;;;;;;;;;;5051500;28;20041;-73
2022/05/20 11:18:13;;;;;;;10.93;4.28;;;;;;;;;;5049653;28;20049;-73
2022/05/20 11:21:00;;;;;;;14.55;5.32;;;;;;;;;;5049220;28;20044;-74
2022/05/20 11:23:42;;;;;;;9.05;4.10;;;;;;;;;;5048126;28;20548;-74
2022/05/20 11:26:19;;;;;;;10.73;4.32;;;;;;;;;;5048135;28;20136;-72
2022/05/20 11:28:45;;;;;;;15.93;4.53;;;;;;;;;;5048079;28;20052;-74
2022/05/20 11:31:31;;;;;;;15.98;4.82;;;;;;;;;;5048335;28;20478;-72
2022/05/20 11:34:00;;;;;;;12.00;3.80;;;;;;;;;;5048728;28;20048;-71
2022/05/20 11:36:45;;;;;;;12.10;3.60;;;;;;;;;;5048474;28;20139;-73
2022/05/20 11:39:30;;;;;;;;;;;;;;;;;;5050576;28;20084;-70
2022/05/20 11:42:03;;;;;;;13.23;4.35;;;;;;;;;;5041386;28;19942;-70
2022/05/20 11:44:29;;;;;;;8.63;3.45;;;;;;;;;;5047535;28;20081;-71
2022/05/20 11:47:13;;;;;;;9.65;3.80;;;;;;;;;;5052323;28;20106;-73
2022/05/20 11:49:54;;;;;;;8.55;3.42;;;;;;;;;;5031026;28;20045;-72
2022/05/20 11:52:34;;;;;;;8.02;3.15;;;;;;;;;;5041364;28;20115;-71
2022/05/20 11:55:12;;;;;;;14.00;3.20;;;;;;;;;;5048840;28;20057;-72
2022/05/20 11:57:46;;;;;;;8.80;2.85;;;;;;;;;;5047832;28;20088;-74
2022/05/20 12:00:16;;;;;;;10.60;3.08;;;;;;;;;;5048965;28;20135;-71
2022/05/20 12:02:48;;;;;;;11.02;2.83;;;;;;;;;;5046489;28;20534;-75
2022/05/20 12:05:17;;;;;;;8.38;3.00;;;;;;;;;;5045970;28;20041;-71
2022/05/20 12:07:42;;;;;;;7.47;3.33;;;;;;;;;;5048038;28;20092;-70
2022/05/20 12:10:37;;;;;;;10.80;2.92;;;;;;;;;;5028564;28;20093;-72
2022/05/20 12:13:22;;;;;;;11.68;3.00;;;;;;;;;;5037089;28;20134;-75
2022/05/20 12:16:14;;;;;;;9.73;2.75;;;;;;;;;;5047174;28;20049;-74
2022/05/20 12:24:34;;;;;;;8.55;2.92;;;;;;;;;;5048428;28;20048;-72
2022/05/20 12:27:01;;;;;;;9.02;3.72;;;;;;;;;;5048053;28;20052;-73
2022/05/20 12:29:37;;;;;;;11.32;3.20;;;;;;;;;;5050099;28;20041;-73
2022/05/20 12:32:15;;;;;;;10.88;3.40;;;;;;;;;;5050506;28;20491;-71
2022/05/20 12:34:42;;;;;;;10.27;3.08;;;;;;;;;;5047190;28;20049;-75
2022/05/20 12:37:40;;;;;;;9.98;3.03;;;;;;;;;;5050048;28;20357;-73
2022/05/20 12:40:15;;;;;;;11.27;2.85;;;;;;;;;;5050266;28;20596;-74
2022/05/20 12:42:58;;;;;;;12.43;2.75;;;;;;;;;;5046835;28;20043;-72
2022/05/20 12:45:27;;;;;;;7.47;2.60;;;;;;;;;;5044459;28;20056;-74
2022/05/20 12:47:55;;;;;;;8.43;3.38;;;;;;;;;;5046593;28;20465;-74
2022/05/20 12:50:26;;;;;;;11.85;3.38;;;;;;;;;;5044773;28;20147;-74
2022/05/20 12:52:58;;;;;;;11.30;3.10;;;;;;;;;;5047000;28;20068;-76
2022/05/20 12:55:28;;;;;;;9.75;3.50;;;;;;;;;;5033085;28;20068;-75
2022/05/20 12:57:59;;;;;;;8.93;3.08;;;;;;;;;;5027582;28;20507;-71
2022/05/20 13:00:29;;;;;;;9.38;3.15;;;;;;;;;;5045083;28;20128;-70
2022/05/20 13:03:24;;;;;;;9.10;2.47;;;;;;;;;;5046219;28;20045;-72
2022/05/20 13:05:53;;;;;;;7.20;2.60;;;;;;;;;;5028415;28;20046;-73
2022/05/20 13:08:21;;;;;;;8.88;2.90;;;;;;;;;;5028743;28;20127;-74
2022/05/20 13:10:48;;;;;;;10.43;3.13;;;;;;;;;;5041504;28;20500;-78
2022/05/20 13:13:16;;;;;;;6.43;2.70;;;;;;;;;;5044475;28;20080;-73
2022/05/20 13:16:08;;;;;;;10.15;3.13;;;;;;;;;;5026368;28;21713;-74
2022/05/20 13:18:37;;;;;;;7.88;2.70;;;;;;;;;;5027743;28;20059;-73
2022/05/20 13:21:08;;;;;;;10.30;2.80;;;;;;;;;;5027994;28;20049;-75
2022/05/20 13:23:38;;;;;;;9.55;2.50;;;;;;;;;;5026625;28;20123;-72
2022/05/20 13:26:06;;;;;;;9.75;2.88;;;;;;;;;;5030532;28;20045;-74
2022/05/20 13:28:35;;;;;;;12.45;3.10;;;;;;;;;;5052865;28;20532;-73
2022/05/20 13:31:09;;;;;;;10.43;2.60;;;;;;;;;;5042182;28;20607;-72
2022/05/20 13:33:39;;;;;;;7.28;2.50;;;;;;;;;;5039336;28;20439;-71
2022/05/20 13:36:07;;;;;;;10.25;2.80;;;;;;;;;;5051022;28;20080;-72
2022/05/20 13:38:42;;;;;;;7.95;2.90;;;;;;;;;;5050541;28;20049;-72
2022/05/20 13:41:09;;;;;;;8.25;2.88;;;;;;;;;;5048860;28;20401;-73
2022/05/20 13:43:38;;;;;;;9.07;2.97;;;;;;;;;;5050234;28;20121;-74
2022/05/20 13:49:14;;;;;;;10.65;2.88;;;;;;;;;;5053472;28;20128;-73
2022/05/20 13:51:49;;;;;;;7.35;2.60;;;;;;;;;;5049345;28;20148;-73
2022/05/20 13:54:21;;;;;;;7.05;2.45;;;;;;;;;;5050500;28;20060;-74
2022/05/20 13:56:50;;;;;;;12.30;2.53;;;;;;;;;;5031413;28;20136;-72
2022/05/20 13:59:35;;;;;;;7.03;2.63;;;;;;;;;;5049198;28;20059;-74
2022/05/20 14:02:10;;;;;;;9.88;2.97;;;;;;;;;;5052246;28;20049;-73
2022/05/20 14:04:41;;;;;;;17.55;2.70;;;;;;;;;;5052667;28;20044;-72
2022/05/20 14:07:12;;;;;;;10.43;2.53;;;;;;;;;;5031287;28;20280;-72
2022/05/20 14:09:45;;;;;;;6.28;2.30;;;;;;;;;;5030134;28;20055;-72
2022/05/20 14:12:19;;;;;;;8.27;2.20;;;;;;;;;;5029140;28;20563;-73
2022/05/20 14:15:01;;;;;;;9.98;2.72;;;;;;;;;;5029890;28;20048;-73
2022/05/20 14:17:28;;;;;;;9.27;2.40;;;;;;;;;;5041106;28;20504;-73
2022/05/20 14:19:59;;;;;;;12.88;2.90;;;;;;;;;;5035301;28;20403;-74
2022/05/20 14:22:27;;;;;;;7.88;2.28;;;;;;;;;;5035372;28;20049;-74
2022/05/20 14:25:31;;;;;;;9.73;2.80;;;;;;;;;;5041680;28;20420;-72
2022/05/20 14:28:17;;;;;;;10.52;2.58;;;;;;;;;;5038553;28;20128;-75
2022/05/20 14:30:46;;;;;;;9.40;2.63;;;;;;;;;;5042980;28;20041;-72
2022/05/20 14:33:20;;;;;;;7.03;2.50;;;;;;;;;;5044560;28;20117;-74
2022/05/20 14:35:50;;;;;;;8.68;2.90;;;;;;;;;;5046796;28;20041;-74
2022/05/20 14:38:24;;;;;;;10.95;2.67;;;;;;;;;;5037866;28;20493;-71
2022/05/20 14:40:52;;;;;;;12.35;3.13;;;;;;;;;;5044591;28;20040;-70
2022/05/20 14:43:29;;;;;;;7.30;2.60;;;;;;;;;;5049122;28;20488;-72
2022/05/20 14:45:58;;;;;;;8.88;2.47;;;;;;;;;;5048271;28;20048;-71
2022/05/20 14:48:36;;;;;;;9.65;2.80;;;;;;;;;;5044342;28;20033;-71
2022/05/20 14:51:04;;;;;;;10.50;2.80;;;;;;;;;;5037346;28;20072;-70
2022/05/20 14:53:41;;;;;;;6.20;2.65;;;;;;;;;;5048788;28;20057;-71
2022/05/20 14:56:40;;;;;;;6.30;2.63;;;;;;;;;;5048167;28;20064;-71
2022/05/20 14:59:08;;;;;;;15.90;3.33;;;;;;;;;;5029024;28;20118;-73
2022/05/20 15:01:35;;;;;;;10.40;3.70;;;;;;;;;;5028372;28;20132;-69
2022/05/20 15:04:01;;;;;;;9.60;2.90;;;;;;;;;;5049729;28;20080;-69
2022/05/20 15:06:33;;;;;;;11.40;2.88;;;;;;;;;;5043363;28;20045;-70
2022/05/20 15:09:00;;;;;;;6.05;2.35;;;;;;;;;;5030212;28;20045;-70
2022/05/20 15:11:34;;;;;;;8.15;2.63;;;;;;;;;;5036336;28;20053;-71
2022/05/20 15:14:01;;;;;;;8.73;2.38;;;;;;;;;;5047611;28;20408;-69
2022/05/20 15:16:27;;;;;;;9.02;2.33;;;;;;;;;;5046762;28;20128;-71
2022/05/20 15:18:53;;;;;;;6.95;2.67;;;;;;;;;;5048078;28;20475;-70
2022/05/20 15:21:32;;;;;;;5.80;2.22;;;;;;;;;;5040222;28;20061;-68
2022/05/20 15:24:06;;;;;;;6.60;2.33;;;;;;;;;;5037699;28;20306;-70
2022/05/20 15:26:36;;;;;;;11.95;3.00;;;;;;;;;;5047051;28;20048;-69
2022/05/20 15:29:03;;;;;;;7.32;2.38;;;;;;;;;;5048869;28;20045;-69
2022/05/20 15:37:23;;;;;;;10.00;2.53;;;;;;;;;;5042826;28;20191;-72
2022/05/20 15:40:00;;;;;;;9.25;3.03;;;;;;;;;;5048934;28;20060;-71
2022/05/20 15:42:27;;;;;;;8.55;2.40;;;;;;;;;;5027311;28;20050;-71
2022/05/20 15:44:53;;;;;;;5.68;2.30;;;;;;;;;;5035661;28;20099;-71